Time;durP1;ratioP1;P1;durP2;ratioP2;P2;SDS_P1;SDS_P2;PMS_P1;PMS_P2;Temp;Humidity;BMP_temperature;BMP_pressure;BME280_temperature;BME280_humidity;BME280_pressure;Samples;Min_cycle;Max_cycle;Signal;HPM_P1;HPM_P2
2022/06/21 00:00:16;;;;;;;7.15;3.92;;;10.90;99.90;;;;;;5032577;28;20150;-44
2022/06/21 00:02:49;;;;;;;10.63;4.07;;;10.90;99.90;;;;;;5022133;28;20066;-44
2022/06/21 00:05:23;;;;;;;8.10;3.58;;;10.90;99.90;;;;;;5022297;28;20547;-43
2022/06/21 00:07:50;;;;;;;6.63;3.72;;;10.90;99.90;;;;;;5022291;28;20428;-46
2022/06/21 00:10:18;;;;;;;8.05;3.95;;;10.90;99.90;;;;;;5003271;28;20074;-43
2022/06/21 00:12:45;;;;;;;6.28;4.15;;;10.80;99.90;;;;;;5021174;28;20041;-43
2022/06/21 00:15:11;;;;;;;7.18;3.65;;;10.80;99.90;;;;;;5027011;28;20045;-44
2022/06/21 00:17:39;;;;;;;7.38;3.38;;;10.70;99.90;;;;;;5042346;28;20056;-44
2022/06/21 00:20:07;;;;;;;6.88;3.22;;;10.70;99.90;;;;;;5017026;28;20538;-43
2022/06/21 00:22:33;;;;;;;8.25;3.47;;;10.60;99.90;;;;;;5024157;28;20132;-45
2022/06/21 00:24:59;;;;;;;7.63;3.40;;;10.60;99.90;;;;;;5022930;28;20365;-43
2022/06/21 00:27:24;;;;;;;6.60;3.70;;;10.60;99.90;;;;;;5021599;28;20115;-45
2022/06/21 00:29:50;;;;;;;5.05;3.38;;;10.60;99.90;;;;;;5014653;28;20053;-42
2022/06/21 00:32:19;;;;;;;6.43;3.85;;;10.60;99.90;;;;;;5022439;28;20045;-45
2022/06/21 00:34:46;;;;;;;6.50;3.65;;;10.50;99.90;;;;;;5022627;28;20050;-46
2022/06/21 00:37:17;;;;;;;6.78;3.90;;;10.50;99.90;;;;;;5027721;28;20059;-44
2022/06/21 00:39:44;;;;;;;10.20;4.18;;;10.50;99.90;;;;;;5035893;28;20085;-45
2022/06/21 00:42:37;;;;;;;6.30;4.03;;;10.40;99.90;;;;;;5029602;28;20115;-44
2022/06/21 00:45:13;;;;;;;5.63;2.85;;;10.40;99.90;;;;;;5019006;28;20071;-44
2022/06/21 00:47:47;;;;;;;7.03;3.03;;;10.40;99.90;;;;;;5041893;28;20084;-43
2022/06/21 00:50:25;;;;;;;5.45;3.88;;;10.30;99.90;;;;;;5041659;28;20076;-45
2022/06/21 00:53:07;;;;;;;6.22;3.70;;;10.30;99.90;;;;;;5018018;28;20486;-46
2022/06/21 00:55:52;;;;;;;5.13;3.83;;;10.20;99.90;;;;;;5021534;28;20135;-43
2022/06/21 00:58:22;;;;;;;5.88;3.88;;;10.20;99.90;;;;;;5041480;28;20091;-43
2022/06/21 01:01:12;;;;;;;9.55;3.95;;;10.20;99.90;;;;;;5033548;28;20072;-44
2022/06/21 01:03:45;;;;;;;6.40;3.60;;;10.20;99.90;;;;;;5019717;28;20124;-43
2022/06/21 01:06:18;;;;;;;7.97;3.42;;;10.20;99.90;;;;;;5021884;28;20613;-42
2022/06/21 01:08:49;;;;;;;5.32;2.72;;;10.10;99.90;;;;;;5041135;28;20064;-43
2022/06/21 01:11:23;;;;;;;4.07;2.50;;;10.10;99.90;;;;;;5023194;28;20122;-42
2022/06/21 01:13:52;;;;;;;3.53;1.95;;;10.10;99.90;;;;;;5034731;28;20402;-42
2022/06/21 01:16:22;;;;;;;5.00;2.08;;;10.00;99.90;;;;;;5007575;28;20061;-45
2022/06/21 01:18:48;;;;;;;2.47;1.98;;;10.00;99.90;;;;;;5019536;28;20138;-44
2022/06/21 01:21:16;;;;;;;3.05;2.30;;;9.90;99.90;;;;;;5021631;28;20381;-43
2022/06/21 01:24:01;;;;;;;4.68;2.60;;;9.90;99.90;;;;;;5026438;28;20049;-44
2022/06/21 01:26:42;;;;;;;2.47;2.10;;;9.80;99.90;;;;;;5004306;28;20598;-43
2022/06/21 01:29:15;;;;;;;2.50;2.05;;;9.90;99.90;;;;;;5021638;28;20049;-44
2022/06/21 01:31:42;;;;;;;4.13;2.90;;;9.80;99.90;;;;;;5021739;28;20065;-43
2022/06/21 01:34:21;;;;;;;10.35;3.17;;;9.80;99.90;;;;;;5022034;28;20049;-45
2022/06/21 01:36:50;;;;;;;6.10;3.17;;;9.80;99.90;;;;;;5038458;28;20395;-44
2022/06/21 01:39:24;;;;;;;6.68;4.20;;;9.80;99.90;;;;;;5031174;28;20049;-42
2022/06/21 01:42:16;;;;;;;4.97;3.50;;;9.80;99.90;;;;;;5020896;28;20053;-43
2022/06/21 01:44:47;;;;;;;8.38;4.20;;;9.80;99.90;;;;;;4952301;28;20525;-43
2022/06/21 01:47:17;;;;;;;5.53;4.22;;;9.80;99.90;;;;;;4956831;28;20522;-45
2022/06/21 01:49:51;;;;;;;6.65;4.35;;;9.90;99.90;;;;;;4961610;28;20121;-44
2022/06/21 01:52:23;;;;;;;3.95;2.88;;;9.90;99.90;;;;;;4954203;28;20146;-46
2022/06/21 01:55:02;;;;;;;4.82;3.15;;;9.90;99.90;;;;;;4959991;28;20059;-46
2022/06/21 01:57:29;;;;;;;4.68;3.35;;;9.80;99.90;;;;;;4959764;28;20142;-43
2022/06/21 01:59:58;;;;;;;4.82;2.78;;;9.80;99.90;;;;;;4959249;28;20110;-42
2022/06/21 02:02:29;;;;;;;4.75;2.70;;;9.70;99.90;;;;;;4959616;28;20576;-43
2022/06/21 02:04:58;;;;;;;3.17;2.63;;;9.70;99.90;;;;;;4960182;28;20055;-42
2022/06/21 02:07:30;;;;;;;4.10;2.38;;;9.70;99.90;;;;;;4959232;28;20050;-42
2022/06/21 02:10:20;;;;;;;3.72;2.38;;;9.60;99.90;;;;;;4958100;28;20514;-43
2022/06/21 02:12:53;;;;;;;2.45;2.20;;;9.60;99.90;;;;;;4956545;28;20051;-43
2022/06/21 02:15:26;;;;;;;3.15;1.77;;;9.60;99.90;;;;;;4939093;28;20431;-42
2022/06/21 02:17:53;;;;;;;3.10;2.05;;;9.60;99.90;;;;;;4958361;28;20085;-43
2022/06/21 02:20:28;;;;;;;3.50;2.05;;;9.50;99.90;;;;;;4958411;28;20062;-43
2022/06/21 02:22:54;;;;;;;2.22;1.77;;;9.40;99.90;;;;;;5035505;28;20045;-44
2022/06/21 02:25:24;;;;;;;2.88;2.05;;;9.40;99.90;;;;;;5019744;28;20049;-44
2022/06/21 02:27:52;;;;;;;2.63;1.83;;;9.30;99.90;;;;;;5019392;28;20045;-43
2022/06/21 02:30:25;;;;;;;2.63;1.90;;;9.30;99.90;;;;;;5020462;28;20052;-45
2022/06/21 02:32:53;;;;;;;3.47;2.53;;;9.30;99.90;;;;;;5038095;28;20310;-43
2022/06/21 02:35:28;;;;;;;3.22;2.42;;;9.30;99.90;;;;;;5023047;28;20587;-43
2022/06/21 02:37:57;;;;;;;5.03;2.38;;;9.20;99.90;;;;;;5002504;28;20076;-43
2022/06/21 02:40:41;;;;;;;4.47;2.47;;;9.30;99.90;;;;;;5019371;28;20103;-45
2022/06/21 02:43:22;;;;;;;4.85;3.10;;;9.20;99.90;;;;;;4989637;28;20046;-43
2022/06/21 02:45:57;;;;;;;6.13;3.28;;;9.20;99.90;;;;;;4995956;28;20165;-43
2022/06/21 02:48:38;;;;;;;6.43;3.53;;;9.30;99.90;;;;;;5001195;28;20056;-42
2022/06/21 02:51:10;;;;;;;6.00;3.78;;;9.30;99.90;;;;;;5000907;28;20416;-42
2022/06/21 02:53:44;;;;;;;4.72;3.28;;;9.30;99.90;;;;;;5001352;28;20061;-43
2022/06/21 02:56:15;;;;;;;4.90;3.15;;;9.30;99.90;;;;;;4987261;28;20052;-45
2022/06/21 02:58:46;;;;;;;5.07;3.03;;;9.20;99.90;;;;;;4979465;28;20131;-44
2022/06/21 03:01:25;;;;;;;5.45;2.40;;;9.20;99.90;;;;;;4980885;28;20449;-44
2022/06/21 03:03:51;;;;;;;5.72;2.78;;;9.20;99.90;;;;;;4983754;28;20061;-42
2022/06/21 03:06:19;;;;;;;5.18;2.58;;;9.20;99.90;;;;;;4983807;28;20054;-44
2022/06/21 03:09:07;;;;;;;3.25;2.25;;;9.20;99.90;;;;;;4990336;28;20799;-43
2022/06/21 03:11:37;;;;;;;8.95;2.35;;;9.20;99.90;;;;;;4980689;28;20416;-46
2022/06/21 03:14:07;;;;;;;7.25;3.03;;;9.20;99.90;;;;;;4984610;28;20046;-43
2022/06/21 03:16:34;;;;;;;6.35;2.80;;;9.20;99.90;;;;;;4993811;28;20053;-43
2022/06/21 03:19:05;;;;;;;5.88;3.40;;;9.20;99.90;;;;;;4983675;28;20046;-43
2022/06/21 03:21:34;;;;;;;4.00;3.17;;;9.10;99.90;;;;;;4984267;28;20658;-43
2022/06/21 03:24:03;;;;;;;5.47;3.45;;;9.10;99.90;;;;;;4995507;28;20045;-42
2022/06/21 03:26:30;;;;;;;5.65;3.40;;;9.20;99.90;;;;;;4984648;28;20054;-45
2022/06/21 03:28:57;;;;;;;7.13;3.83;;;9.20;99.90;;;;;;4985234;28;20054;-43
2022/06/21 03:31:34;;;;;;;5.88;4.40;;;9.20;99.90;;;;;;4985276;28;20867;-43
2022/06/21 03:34:10;;;;;;;7.78;4.50;;;9.30;99.90;;;;;;4983009;28;20100;-47
2022/06/21 03:36:36;;;;;;;7.15;3.78;;;9.20;99.90;;;;;;4984853;28;20600;-42
2022/06/21 03:39:15;;;;;;;3.80;3.40;;;9.30;99.90;;;;;;4984734;28;20046;-43
2022/06/21 03:41:42;;;;;;;6.20;3.38;;;9.30;99.90;;;;;;5005061;28;20061;-44
2022/06/21 03:44:26;;;;;;;5.03;3.20;;;9.30;99.90;;;;;;5006086;28;20100;-43
2022/06/21 03:46:58;;;;;;;5.03;3.33;;;9.40;99.90;;;;;;5023810;28;20475;-43
2022/06/21 03:50:12;;;;;;;5.63;3.20;;;9.50;99.90;;;;;;5022834;28;20111;-44
2022/06/21 03:53:04;;;;;;;4.90;3.83;;;9.70;99.90;;;;;;5019813;28;20072;-44
2022/06/21 03:55:38;;;;;;;7.22;3.78;;;9.90;99.90;;;;;;5023428;28;20346;-43
2022/06/21 03:58:24;;;;;;;7.18;4.75;;;10.10;99.90;;;;;;5021930;28;20049;-43
2022/06/21 04:00:55;;;;;;;6.85;3.90;;;10.70;99.90;;;;;;5022139;28;20068;-44
2022/06/21 04:03:24;;;;;;;10.07;4.22;;;11.50;99.90;;;;;;5023519;28;20478;-45
2022/06/21 04:05:58;;;;;;;8.80;4.75;;;12.30;99.90;;;;;;5010668;28;20057;-43
2022/06/21 04:08:44;;;;;;;8.20;3.83;;;13.10;99.90;;;;;;5023001;28;20076;-43
2022/06/21 04:11:28;;;;;;;5.60;3.38;;;14.00;99.90;;;;;;5036105;28;20553;-45
2022/06/21 04:14:02;;;;;;;;;;;14.70;99.90;;;;;;5044506;28;20049;-45
2022/06/21 04:16:38;;;;;;;7.15;3.60;;;14.50;99.90;;;;;;5044077;28;19971;-44
2022/06/21 04:19:49;;;;;;;5.32;2.85;;;14.20;99.90;;;;;;5046579;28;20049;-44
2022/06/21 04:22:38;;;;;;;5.32;3.33;;;13.60;99.90;;;;;;4942903;28;20421;-43
2022/06/21 04:25:13;;;;;;;5.28;3.30;;;13.00;99.90;;;;;;4948634;28;20130;-43
2022/06/21 04:27:52;;;;;;;8.98;3.78;;;12.70;99.90;;;;;;4961175;28;20061;-44
2022/06/21 04:30:25;;;;;;;6.57;3.85;;;12.40;99.90;;;;;;4955355;28;20109;-45
2022/06/21 04:33:02;;;;;;;7.13;3.95;;;12.20;99.90;;;;;;4957345;28;20125;-43
2022/06/21 04:35:34;;;;;;;5.63;4.60;;;12.10;99.90;;;;;;4945332;28;20078;-44
2022/06/21 04:38:23;;;;;;;5.78;4.13;;;11.90;99.90;;;;;;4944672;28;20571;-43
2022/06/21 04:41:03;;;;;;;9.38;5.00;;;11.90;99.90;;;;;;4948957;28;20074;-43
2022/06/21 04:43:42;;;;;;;5.90;3.95;;;11.80;99.90;;;;;;4956699;28;20580;-43
2022/06/21 04:46:31;;;;;;;10.15;5.10;;;11.80;99.90;;;;;;4952656;28;20109;-42
2022/06/21 04:49:04;;;;;;;8.65;4.70;;;11.80;99.90;;;;;;4961240;28;20154;-43
2022/06/21 04:51:35;;;;;;;;;;;11.90;99.90;;;;;;4961269;28;20581;-44
2022/06/21 04:54:05;;;;;;;9.43;4.82;;;12.00;99.90;;;;;;4936378;28;19930;-45
2022/06/21 04:56:31;;;;;;;5.20;4.70;;;12.10;99.90;;;;;;4960511;28;20065;-44
2022/06/21 04:59:05;;;;;;;6.82;4.30;;;12.20;99.90;;;;;;4995501;28;20053;-44
2022/06/21 05:01:32;;;;;;;5.95;4.20;;;12.30;99.90;;;;;;5042131;28;20064;-43
2022/06/21 05:04:20;;;;;;;9.25;4.57;;;12.30;99.90;;;;;;5028636;28;20045;-44
2022/06/21 05:06:49;;;;;;;6.32;4.22;;;12.40;99.90;;;;;;5024923;28;20060;-44
2022/06/21 05:09:22;;;;;;;6.93;4.88;;;12.40;99.90;;;;;;5042425;28;20055;-43
2022/06/21 05:12:01;;;;;;;6.88;4.68;;;12.50;99.90;;;;;;5040198;28;20048;-45
2022/06/21 05:14:32;;;;;;;7.15;4.53;;;12.60;99.90;;;;;;5027922;28;20522;-42
2022/06/21 05:16:57;;;;;;;7.35;5.35;;;12.70;99.90;;;;;;5021155;28;20058;-45
2022/06/21 05:19:29;;;;;;;7.90;5.70;;;12.80;99.90;;;;;;5042213;28;20056;-44
2022/06/21 05:22:15;;;;;;;9.30;5.72;;;12.90;99.90;;;;;;5024604;28;20143;-44
2022/06/21 05:24:41;;;;;;;8.98;4.90;;;13.00;99.90;;;;;;5032216;28;20180;-44
2022/06/21 05:27:07;;;;;;;8.98;5.55;;;13.20;99.90;;;;;;5023716;28;20049;-45
2022/06/21 05:29:40;;;;;;;6.30;5.55;;;13.60;99.90;;;;;;5040993;28;20057;-43
2022/06/21 05:32:15;;;;;;;17.73;5.85;;;14.00;99.90;;;;;;5038857;28;20147;-44
2022/06/21 05:34:46;;;;;;;9.77;4.93;;;14.40;99.90;;;;;;5005347;28;20057;-47
2022/06/21 05:37:32;;;;;;;9.18;4.45;;;15.30;99.90;;;;;;5016376;28;20049;-47
2022/06/21 05:40:02;;;;;;;6.60;4.72;;;16.50;99.90;;;;;;5011214;28;20599;-44
2022/06/21 05:42:28;;;;;;;8.25;4.25;;;18.50;99.90;;;;;;5030478;28;20607;-44
2022/06/21 05:45:14;;;;;;;9.60;5.38;;;19.90;99.90;;;;;;5036641;28;20049;-46
2022/06/21 05:47:51;;;;;;;7.25;4.68;;;21.30;99.90;;;;;;5021491;28;20049;-45
2022/06/21 05:50:22;;;;;;;7.65;4.85;;;22.70;99.90;;;;;;5002940;28;20061;-44
2022/06/21 05:52:53;;;;;;;6.93;4.40;;;24.40;99.90;;;;;;5021246;28;20049;-44
2022/06/21 05:55:25;;;;;;;6.80;4.38;;;25.40;99.90;;;;;;5017710;28;20072;-44
2022/06/21 05:58:01;;;;;;;7.32;3.60;;;26.20;98.40;;;;;;5020659;28;20045;-44
2022/06/21 06:00:37;;;;;;;6.60;2.65;;;27.20;97.30;;;;;;5026588;28;20100;-42
2022/06/21 06:03:14;;;;;;;14.32;4.20;;;27.80;93.10;;;;;;5040664;28;20092;-43
2022/06/21 06:05:41;;;;;;;9.68;3.35;;;28.50;93.10;;;;;;5020275;28;20049;-43
2022/06/21 06:08:12;;;;;;;5.88;2.20;;;29.00;92.60;;;;;;5021254;28;20500;-44
2022/06/21 06:10:42;;;;;;;5.50;1.90;;;29.50;91.50;;;;;;5020253;28;20183;-47
2022/06/21 06:13:14;;;;;;;6.20;2.13;;;29.70;89.00;;;;;;5003342;28;20049;-43
2022/06/21 06:15:47;;;;;;;3.67;1.85;;;29.70;87.40;;;;;;5002685;28;20049;-44
2022/06/21 06:18:23;;;;;;;6.00;1.70;;;29.90;86.20;;;;;;5020813;28;20628;-45
2022/06/21 06:20:55;;;;;;;5.85;2.10;;;29.40;83.30;;;;;;5002250;28;20053;-44
2022/06/21 06:23:21;;;;;;;5.72;2.10;;;28.80;82.50;;;;;;5020798;28;20652;-47
2022/06/21 06:25:54;;;;;;;4.13;1.88;;;28.80;85.70;;;;;;5004997;28;20057;-43
2022/06/21 06:28:26;;;;;;;7.78;2.35;;;28.40;83.30;;;;;;5020457;28;20079;-43
2022/06/21 06:31:00;;;;;;;6.60;2.78;;;28.70;85.40;;;;;;5003233;28;20062;-43
2022/06/21 06:33:39;;;;;;;5.82;2.08;;;28.10;84.90;;;;;;5022007;28;20034;-45
2022/06/21 06:36:15;;;;;;;7.93;2.20;;;28.40;82.30;;;;;;5020528;28;20223;-43
2022/06/21 06:38:41;;;;;;;7.40;2.55;;;28.00;83.00;;;;;;5019827;28;20587;-43
2022/06/21 06:41:30;;;;;;;6.68;2.45;;;27.90;84.50;;;;;;5021414;28;20060;-44
2022/06/21 06:43:58;;;;;;;8.15;2.75;;;27.80;84.50;;;;;;5026189;28;20080;-43
2022/06/21 06:46:32;;;;;;;6.57;2.50;;;27.50;85.40;;;;;;5026100;28;20132;-42
2022/06/21 06:49:18;;;;;;;6.85;2.00;;;27.80;83.50;;;;;;5029172;28;20088;-44
2022/06/21 06:52:05;;;;;;;6.38;2.10;;;28.40;82.50;;;;;;5026428;28;20132;-48
2022/06/21 06:54:54;;;;;;;4.90;1.98;;;29.10;82.10;;;;;;5024435;28;20490;-43
2022/06/21 06:57:42;;;;;;;5.88;2.03;;;29.40;81.10;;;;;;5023503;28;20073;-46
2022/06/21 07:00:13;;;;;;;6.07;2.28;;;30.00;80.70;;;;;;5023976;28;20053;-45
2022/06/21 07:02:45;;;;;;;7.88;2.63;;;30.40;80.70;;;;;;5024109;28;20499;-44
2022/06/21 07:05:36;;;;;;;5.25;2.30;;;29.80;79.90;;;;;;5031550;28;20145;-43
2022/06/21 07:08:32;;;;;;;6.95;2.63;;;29.00;79.00;;;;;;5006823;28;20124;-43
2022/06/21 07:11:02;;;;;;;6.30;2.38;;;28.50;81.30;;;;;;4947944;28;20058;-44
2022/06/21 07:13:28;;;;;;;7.47;2.65;;;27.10;83.60;;;;;;4961279;28;20055;-43
2022/06/21 07:16:03;;;;;;;6.10;3.15;;;25.70;84.20;;;;;;4962878;28;20050;-44
2022/06/21 07:18:39;;;;;;;7.63;2.63;;;24.90;87.00;;;;;;4956823;28;20043;-43
2022/06/21 07:21:05;;;;;;;5.95;2.70;;;25.10;88.10;;;;;;4954754;28;20047;-44
2022/06/21 07:23:31;;;;;;;5.15;2.20;;;25.80;87.40;;;;;;4953204;28;20569;-44
2022/06/21 07:26:17;;;;;;;6.35;2.88;;;27.10;86.20;;;;;;4969615;28;20510;-44
2022/06/21 07:28:58;;;;;;;6.07;2.58;;;27.40;85.40;;;;;;5022782;28;20068;-44
2022/06/21 07:31:37;;;;;;;6.82;2.35;;;26.20;85.60;;;;;;5041509;28;20514;-44
2022/06/21 07:34:07;;;;;;;5.93;2.40;;;25.00;85.60;;;;;;5043807;28;20080;-43
2022/06/21 07:36:47;;;;;;;5.28;2.05;;;24.60;88.40;;;;;;5043951;28;20045;-44
2022/06/21 07:39:21;;;;;;;7.50;2.70;;;24.90;88.60;;;;;;5040686;28;20041;-44
2022/06/21 07:42:06;;;;;;;8.95;2.78;;;24.90;88.10;;;;;;5021849;28;20187;-43
2022/06/21 07:44:41;;;;;;;5.13;2.35;;;25.20;88.60;;;;;;5024281;28;20053;-45
2022/06/21 07:47:17;;;;;;;5.05;2.22;;;25.40;87.60;;;;;;5022244;28;20107;-44
2022/06/21 07:49:50;;;;;;;7.22;2.70;;;25.20;88.00;;;;;;5025725;28;20522;-43
2022/06/21 07:52:44;;;;;;;5.00;2.15;;;25.30;88.20;;;;;;5022869;28;20053;-43
2022/06/21 07:55:28;;;;;;;4.95;2.35;;;25.10;89.40;;;;;;5025363;28;20133;-44
2022/06/21 07:58:02;;;;;;;5.75;2.13;;;25.00;88.90;;;;;;5042967;28;20053;-46
2022/06/21 08:06:41;;;;;;;5.78;2.30;;;25.10;89.70;;;;;;5042582;28;20138;-44
2022/06/21 08:09:17;;;;;;;5.72;2.45;;;24.30;88.90;;;;;;5027147;28;20057;-44
2022/06/21 08:11:45;;;;;;;6.57;2.78;;;24.10;89.90;;;;;;5038593;28;20066;-44
2022/06/21 08:14:13;;;;;;;5.22;2.38;;;24.20;89.70;;;;;;5023723;28;20574;-49
2022/06/21 08:16:54;;;;;;;6.45;2.45;;;24.00;90.10;;;;;;5023111;28;20100;-48
2022/06/21 08:19:40;;;;;;;4.85;2.38;;;24.00;90.10;;;;;;5022490;28;20611;-43
2022/06/21 08:22:13;;;;;;;8.55;2.85;;;24.20;90.40;;;;;;5018285;28;20060;-43
2022/06/21 08:24:50;;;;;;;5.63;2.30;;;24.30;89.60;;;;;;5027201;28;20045;-44
2022/06/21 08:27:42;;;;;;;7.13;2.35;;;24.10;90.30;;;;;;5022659;28;20053;-43
2022/06/21 08:30:40;;;;;;;4.30;2.15;;;23.80;90.50;;;;;;5022387;28;20096;-43
2022/06/21 08:33:13;;;;;;;4.97;2.13;;;23.90;90.60;;;;;;5021385;28;20164;-44
2022/06/21 08:35:44;;;;;;;5.40;2.55;;;23.80;89.90;;;;;;5022102;28;20041;-44
2022/06/21 08:38:36;;;;;;;4.05;1.90;;;23.60;90.40;;;;;;5022625;28;20049;-45
2022/06/21 08:44:44;;;;;;;6.18;2.90;;;23.50;90.50;;;;;;5021302;28;20175;-43
2022/06/21 08:47:19;;;;;;;6.07;2.15;;;23.60;89.90;;;;;;4955669;28;20098;-44
2022/06/21 08:50:02;;;;;;;7.40;2.55;;;23.60;89.90;;;;;;4957980;28;20669;-45
2022/06/21 08:53:09;;;;;;;4.30;2.30;;;23.80;90.80;;;;;;4960157;28;20058;-43
2022/06/21 08:55:46;;;;;;;8.20;2.30;;;24.10;90.90;;;;;;4936210;29;20174;-44
2022/06/21 08:58:23;;;;;;;8.88;2.63;;;24.40;90.90;;;;;;4940893;29;20051;-44
2022/06/21 09:01:01;;;;;;;5.10;2.17;;;24.50;90.00;;;;;;4941048;29;20094;-43
2022/06/21 09:07:38;;;;;;;5.07;2.47;;;24.60;91.20;;;;;;4901401;29;20583;-43
2022/06/21 09:10:19;;;;;;;4.47;2.05;;;24.80;90.30;;;;;;4902386;29;20529;-43
2022/06/21 09:13:03;;;;;;;5.80;2.03;;;24.80;89.80;;;;;;4902571;29;20185;-43
2022/06/21 09:16:11;;;;;;;5.80;2.13;;;24.90;89.40;;;;;;4886135;29;20066;-45
2022/06/21 09:18:43;;;;;;;4.28;1.70;;;24.70;88.80;;;;;;4902596;29;20063;-44
2022/06/21 09:21:11;;;;;;;6.93;2.58;;;24.70;89.20;;;;;;4903041;29;20472;-43
2022/06/21 09:23:42;;;;;;;4.78;2.13;;;24.20;90.10;;;;;;4910535;29;20059;-43
2022/06/21 09:26:16;;;;;;;5.95;2.13;;;24.00;91.00;;;;;;4905414;29;20146;-45
2022/06/21 09:28:55;;;;;;;5.47;2.08;;;23.80;90.40;;;;;;4921730;29;20052;-45
2022/06/21 09:31:25;;;;;;;3.38;1.40;;;23.70;91.30;;;;;;4938866;28;20057;-46
2022/06/21 09:34:01;;;;;;;3.92;1.88;;;23.90;90.20;;;;;;4980920;28;20050;-47
2022/06/21 09:37:13;;;;;;;6.65;2.20;;;24.10;89.40;;;;;;4970701;28;20053;-45
2022/06/21 09:40:00;;;;;;;5.18;1.85;;;24.10;90.30;;;;;;5019110;28;20166;-47
2022/06/21 09:46:34;;;;;;;3.65;1.75;;;23.90;89.30;;;;;;4975451;28;20049;-47
2022/06/21 09:49:12;;;;;;;6.22;2.08;;;23.30;89.50;;;;;;4982794;28;20058;-47
2022/06/21 09:51:55;;;;;;;5.10;2.22;;;23.10;91.30;;;;;;5001667;28;20561;-46
2022/06/21 09:54:32;;;;;;;4.57;2.45;;;23.30;90.90;;;;;;5000097;28;20061;-48
2022/06/21 09:57:14;;;;;;;6.15;2.25;;;23.50;90.80;;;;;;4997721;28;20141;-46
2022/06/21 09:59:56;;;;;;;4.45;2.00;;;23.50;90.00;;;;;;4999035;28;20183;-47
2022/06/21 10:02:54;;;;;;;3.83;1.73;;;23.50;89.30;;;;;;4995250;28;20064;-46
2022/06/21 10:05:41;;;;;;;4.18;1.95;;;23.60;90.40;;;;;;4934960;28;20071;-47
2022/06/21 10:08:45;;;;;;;5.10;2.17;;;23.30;90.00;;;;;;4920208;29;20204;-48
2022/06/21 10:11:34;;;;;;;4.53;2.28;;;23.10;91.30;;;;;;4907332;29;20596;-47
2022/06/21 10:14:31;;;;;;;3.92;1.98;;;22.90;91.20;;;;;;4916952;29;20056;-49
2022/06/21 10:17:18;;;;;;;5.10;1.92;;;22.80;90.20;;;;;;4863294;29;20148;-46
2022/06/21 10:20:13;;;;;;;5.50;2.03;;;22.80;90.60;;;;;;4854257;29;20512;-47
2022/06/21 10:23:01;;;;;;;9.85;2.70;;;22.80;90.70;;;;;;4864880;29;20065;-49
2022/06/21 10:25:50;;;;;;;5.78;2.83;;;22.80;91.00;;;;;;4849269;29;20562;-47
2022/06/21 10:28:29;;;;;;;7.25;3.00;;;22.80;91.70;;;;;;4864779;29;20076;-45
2022/06/21 10:31:14;;;;;;;6.55;2.67;;;23.00;91.30;;;;;;4863272;29;20057;-45
2022/06/21 10:33:42;;;;;;;6.50;2.10;;;22.90;90.00;;;;;;4849433;29;20061;-46
2022/06/21 10:36:48;;;;;;;7.22;2.22;;;23.00;90.40;;;;;;4862942;29;20061;-45
2022/06/21 10:39:51;;;;;;;4.25;1.92;;;22.80;90.80;;;;;;4827294;29;20149;-51
2022/06/21 10:45:11;;;;;;;;;;;23.00;90.40;;;;;;4810311;29;20066;-46
2022/06/21 10:48:15;;;;;;;5.93;2.47;;;23.00;90.30;;;;;;4810836;29;19932;-46
2022/06/21 10:50:59;;;;;;;6.97;2.13;;;23.00;89.20;;;;;;4813989;29;20058;-46
2022/06/21 10:53:39;;;;;;;6.57;2.20;;;22.80;90.20;;;;;;4860516;29;20060;-48
2022/06/21 11:01:16;;;;;;;4.68;1.63;;;22.70;90.10;;;;;;4919135;29;20135;-48
2022/06/21 11:02:51;;;;;;;4.00;1.83;;;22.70;90.40;;;;;;4906158;29;20103;-46
2022/06/21 11:05:39;;;;;;;5.03;2.15;;;22.60;91.70;;;;;;4864126;29;20124;-50
2022/06/21 11:08:27;;;;;;;3.83;1.85;;;22.70;91.60;;;;;;4864573;29;20531;-47
2022/06/21 11:11:20;;;;;;;3.78;2.17;;;23.10;92.50;;;;;;4865095;29;20069;-47
2022/06/21 11:14:25;;;;;;;3.40;1.95;;;23.20;93.10;;;;;;4865944;29;20563;-48
2022/06/21 11:17:24;;;;;;;6.82;2.60;;;23.40;91.50;;;;;;4852175;29;20069;-45
2022/06/21 11:20:02;;;;;;;4.10;2.22;;;23.50;88.90;;;;;;4836041;29;20069;-51
2022/06/21 11:22:42;;;;;;;4.53;2.00;;;23.50;91.40;;;;;;4856735;29;20061;-51
2022/06/21 11:25:30;;;;;;;4.80;1.77;;;23.60;91.20;;;;;;4854329;29;20071;-50
2022/06/21 11:28:11;;;;;;;4.30;1.88;;;23.70;90.30;;;;;;4848652;29;20110;-49
2022/06/21 11:31:28;;;;;;;3.35;1.58;;;23.90;90.20;;;;;;4850220;29;20102;-49
2022/06/21 11:34:27;;;;;;;3.85;1.70;;;23.90;87.80;;;;;;4795982;29;20604;-50
2022/06/21 11:37:33;;;;;;;5.35;2.10;;;23.80;90.80;;;;;;4798772;29;20059;-50
2022/06/21 11:40:33;;;;;;;3.83;1.98;;;23.90;89.60;;;;;;4797514;29;20070;-48
2022/06/21 11:43:02;;;;;;;8.35;2.70;;;23.80;88.20;;;;;;4868715;29;20079;-50
2022/06/21 11:45:37;;;;;;;4.13;1.90;;;23.90;88.70;;;;;;4884149;29;20072;-45
2022/06/21 11:48:10;;;;;;;6.03;1.98;;;23.80;86.50;;;;;;4884258;29;20522;-46
2022/06/21 11:50:54;;;;;;;5.47;2.08;;;23.50;87.10;;;;;;4886435;29;20060;-47
2022/06/21 11:53:20;;;;;;;3.92;1.95;;;23.30;86.70;;;;;;4901299;29;20431;-47
2022/06/21 11:55:49;;;;;;;5.75;2.25;;;23.40;88.80;;;;;;4904665;29;20062;-46
2022/06/21 11:58:36;;;;;;;3.85;2.10;;;23.50;88.50;;;;;;4906150;29;20052;-49
2022/06/21 12:01:22;;;;;;;5.53;2.03;;;23.60;89.70;;;;;;4902951;29;20052;-48
2022/06/21 12:04:12;;;;;;;4.68;2.38;;;23.50;88.70;;;;;;4904813;29;20150;-47
2022/06/21 12:06:54;;;;;;;5.78;2.08;;;23.20;87.10;;;;;;4904985;29;20119;-49
2022/06/21 12:09:26;;;;;;;3.38;1.48;;;23.30;88.80;;;;;;4930459;28;20125;-46
2022/06/21 12:12:20;;;;;;;6.50;2.47;;;23.30;88.80;;;;;;4948842;28;21012;-47
2022/06/21 12:15:21;;;;;;;5.07;1.88;;;23.30;88.50;;;;;;4959974;28;20065;-47
2022/06/21 12:17:59;;;;;;;6.25;2.03;;;23.40;87.70;;;;;;4964970;28;20572;-46
2022/06/21 12:20:37;;;;;;;4.38;1.98;;;23.20;90.40;;;;;;4964537;28;20129;-46
2022/06/21 12:23:14;;;;;;;6.15;2.50;;;23.20;89.70;;;;;;4966060;28;20051;-45
2022/06/21 12:25:40;;;;;;;4.85;2.28;;;23.30;89.10;;;;;;4964413;28;20050;-49
2022/06/21 12:28:19;;;;;;;4.57;1.83;;;23.30;89.00;;;;;;4964878;28;20110;-43
2022/06/21 12:30:46;;;;;;;6.05;2.00;;;23.30;87.70;;;;;;4964616;28;20050;-50
2022/06/21 12:33:15;;;;;;;3.65;1.98;;;23.00;87.40;;;;;;4965358;28;20050;-47
2022/06/21 12:35:57;;;;;;;4.95;1.80;;;23.00;88.80;;;;;;4952027;28;20055;-48
2022/06/21 12:38:37;;;;;;;7.65;2.95;;;23.00;88.80;;;;;;4958787;28;20050;-50
2022/06/21 12:41:26;;;;;;;7.32;2.35;;;23.00;87.60;;;;;;4963370;28;20089;-47
2022/06/21 12:44:04;;;;;;;4.22;1.90;;;23.00;87.50;;;;;;4965351;28;20165;-48
2022/06/21 12:46:43;;;;;;;6.28;2.30;;;23.00;88.00;;;;;;4968493;28;20595;-51
2022/06/21 12:49:21;;;;;;;3.97;1.50;;;23.10;88.70;;;;;;4989418;28;20046;-50
2022/06/21 12:52:02;;;;;;;4.32;1.70;;;23.00;87.70;;;;;;5003923;28;20093;-52
2022/06/21 12:54:57;;;;;;;3.30;1.73;;;23.10;87.40;;;;;;5004378;28;20167;-49
2022/06/21 12:57:33;;;;;;;3.28;1.83;;;23.20;88.30;;;;;;5004473;28;20133;-48
2022/06/21 13:00:05;;;;;;;5.10;1.63;;;23.20;86.40;;;;;;5004350;28;20066;-48
2022/06/21 13:03:18;;;;;;;3.90;1.75;;;23.20;86.20;;;;;;5004996;28;20050;-46
2022/06/21 13:06:06;;;;;;;4.35;2.00;;;23.10;85.10;;;;;;4997303;28;20501;-50
2022/06/21 13:08:53;;;;;;;5.15;1.73;;;23.10;86.40;;;;;;4984643;28;20082;-46
2022/06/21 13:11:32;;;;;;;4.40;1.88;;;23.20;87.90;;;;;;4989893;28;20050;-46
2022/06/21 13:14:18;;;;;;;3.72;1.65;;;23.40;87.80;;;;;;4985117;28;20850;-47
2022/06/21 13:17:19;;;;;;;4.07;1.98;;;23.60;86.40;;;;;;4952536;28;20145;-46
2022/06/21 13:19:53;;;;;;;4.47;1.80;;;23.70;85.90;;;;;;4982973;28;20552;-47
2022/06/21 13:22:41;;;;;;;9.05;2.47;;;23.60;85.00;;;;;;5004848;28;20065;-48
2022/06/21 13:25:38;;;;;;;5.07;1.80;;;23.60;85.60;;;;;;4983183;28;20140;-48
2022/06/21 13:28:33;;;;;;;5.03;1.80;;;23.90;87.90;;;;;;4984581;28;20072;-50
2022/06/21 13:31:12;;;;;;;5.68;2.55;;;24.20;88.30;;;;;;5000336;28;20058;-51
2022/06/21 13:34:06;;;;;;;4.88;2.05;;;24.40;86.30;;;;;;4992881;28;20046;-48
2022/06/21 13:36:46;;;;;;;4.22;2.20;;;24.40;84.60;;;;;;4995217;28;20062;-47
2022/06/21 13:39:45;;;;;;;5.32;2.30;;;24.50;88.80;;;;;;4987367;28;20060;-49
2022/06/21 13:42:39;;;;;;;6.95;2.50;;;24.40;86.90;;;;;;4997926;28;20050;-45
2022/06/21 13:45:16;;;;;;;5.00;2.40;;;24.40;87.00;;;;;;4995856;28;20054;-46
2022/06/21 13:48:34;;;;;;;7.15;2.33;;;24.30;85.60;;;;;;4996766;28;20342;-47
2022/06/21 13:51:04;;;;;;;4.75;2.47;;;24.20;87.00;;;;;;4904000;29;20091;-50
2022/06/21 13:53:57;;;;;;;3.67;2.08;;;24.10;89.30;;;;;;4905164;29;20060;-49
2022/06/21 13:56:51;;;;;;;3.50;2.13;;;24.20;90.00;;;;;;4904815;29;20056;-46
2022/06/21 13:59:45;;;;;;;4.35;2.47;;;24.40;89.90;;;;;;4904433;29;20180;-48
2022/06/21 14:02:55;;;;;;;14.38;2.55;;;24.30;88.70;;;;;;4862736;29;20068;-46
2022/06/21 14:05:38;;;;;;;7.57;2.90;;;24.20;89.70;;;;;;4826795;29;20057;-47
2022/06/21 14:08:30;;;;;;;12.43;2.85;;;24.10;89.20;;;;;;4828742;29;20077;-46
2022/06/21 14:11:09;;;;;;;8.07;3.20;;;24.10;90.30;;;;;;4814823;29;20062;-48
2022/06/21 14:13:53;;;;;;;5.35;2.50;;;24.00;89.90;;;;;;4811485;29;20521;-47